sensor_id;sensor_type;location;lat;lon;timestamp;pressure;altitude;pressure_sealevel;temperature;humidity
48517;BME280;34310;51.904;4.256;2022-09-09T00:00:48;100742.13;;;23.24;57.47
48517;BME280;34310;51.904;4.256;2022-09-09T00:03:31;100750.00;;;23.22;57.42
48517;BME280;34310;51.904;4.256;2022-09-09T00:06:43;100737.72;;;23.23;57.39
48517;BME280;34310;51.904;4.256;2022-09-09T00:09:12;100737.69;;;23.21;57.47
48517;BME280;34310;51.904;4.256;2022-09-09T00:11:54;100750.84;;;23.20;57.37
48517;BME280;34310;51.904;4.256;2022-09-09T00:17:30;100735.03;;;23.18;57.72
48517;BME280;34310;51.904;4.256;2022-09-09T00:20:33;100734.13;;;23.17;57.48
48517;BME280;34310;51.904;4.256;2022-09-09T00:23:35;100735.88;;;23.17;57.58
48517;BME280;34310;51.904;4.256;2022-09-09T00:26:27;100735.84;;;23.15;57.49
48517;BME280;34310;51.904;4.256;2022-09-09T00:29:25;100737.56;;;23.13;57.89
48517;BME280;34310;51.904;4.256;2022-09-09T00:32:05;100741.09;;;23.14;58.00
48517;BME280;34310;51.904;4.256;2022-09-09T00:34:36;100738.47;;;23.14;58.02
48517;BME280;34310;51.904;4.256;2022-09-09T00:37:09;100742.88;;;23.15;57.59
48517;BME280;34310;51.904;4.256;2022-09-09T00:39:42;100741.91;;;23.11;57.70
48517;BME280;34310;51.904;4.256;2022-09-09T00:42:22;100740.16;;;23.12;57.62
48517;BME280;34310;51.904;4.256;2022-09-09T00:45:46;100733.97;;;23.10;57.83
48517;BME280;34310;51.904;4.256;2022-09-09T00:47:50;100733.97;;;23.10;57.77
48517;BME280;34310;51.904;4.256;2022-09-09T00:50:47;100725.22;;;23.11;58.04
48517;BME280;34310;51.904;4.256;2022-09-09T00:56:15;100726.94;;;23.09;57.71
48517;BME280;34310;51.904;4.256;2022-09-09T00:59:01;100723.41;;;23.08;57.74
48517;BME280;34310;51.904;4.256;2022-09-09T01:01:34;100726.91;;;23.07;57.93
48517;BME280;34310;51.904;4.256;2022-09-09T01:04:08;100725.16;;;23.08;57.85
48517;BME280;34310;51.904;4.256;2022-09-09T01:06:38;100720.75;;;23.07;57.83
48517;BME280;34310;51.904;4.256;2022-09-09T01:09:19;100724.25;;;23.07;57.67
48517;BME280;34310;51.904;4.256;2022-09-09T01:19:47;100713.69;;;23.04;57.91
48517;BME280;34310;51.904;4.256;2022-09-09T01:28:26;100700.50;;;23.03;58.13
48517;BME280;34310;51.904;4.256;2022-09-09T01:30:55;100693.44;;;23.02;58.06
48517;BME280;34310;51.904;4.256;2022-09-09T01:33:23;100700.47;;;23.01;58.29
48517;BME280;34310;51.904;4.256;2022-09-09T01:35:59;100690.81;;;23.02;57.84
48517;BME280;34310;51.904;4.256;2022-09-09T01:38:28;100690.78;;;23.00;57.98
48517;BME280;34310;51.904;4.256;2022-09-09T01:40:56;100685.53;;;23.00;58.17
48517;BME280;34310;51.904;4.256;2022-09-09T01:43:26;100685.50;;;22.99;58.24
48517;BME280;34310;51.904;4.256;2022-09-09T01:45:56;100688.13;;;22.99;58.00
48517;BME280;34310;51.904;4.256;2022-09-09T01:48:25;100693.41;;;22.99;58.45
48517;BME280;34310;51.904;4.256;2022-09-09T01:50:53;100687.25;;;22.98;58.02
48517;BME280;34310;51.904;4.256;2022-09-09T01:53:21;100694.25;;;22.98;58.49
48517;BME280;34310;51.904;4.256;2022-09-09T01:58:59;100675.78;;;22.95;58.16
48517;BME280;34310;51.904;4.256;2022-09-09T02:04:23;100677.53;;;22.94;58.17
48517;BME280;34310;51.904;4.256;2022-09-09T02:06:55;100669.56;;;22.91;58.36
48517;BME280;34310;51.904;4.256;2022-09-09T02:09:25;100667.88;;;22.95;58.20
48517;BME280;34310;51.904;4.256;2022-09-09T02:12:03;100669.59;;;22.93;58.16
48517;BME280;34310;51.904;4.256;2022-09-09T02:14:41;100667.81;;;22.92;58.42
48517;BME280;34310;51.904;4.256;2022-09-09T02:17:11;100670.47;;;22.92;58.56
48517;BME280;34310;51.904;4.256;2022-09-09T02:19:46;100663.41;;;22.91;58.32
48517;BME280;34310;51.904;4.256;2022-09-09T02:22:20;100661.69;;;22.91;58.57
48517;BME280;34310;51.904;4.256;2022-09-09T02:24:50;100662.50;;;22.89;58.43
48517;BME280;34310;51.904;4.256;2022-09-09T02:27:21;100656.38;;;22.90;58.40
48517;BME280;34310;51.904;4.256;2022-09-09T02:29:50;100658.16;;;22.91;58.52
48517;BME280;34310;51.904;4.256;2022-09-09T02:32:22;100652.88;;;22.89;58.40
48517;BME280;34310;51.904;4.256;2022-09-09T02:35:21;100664.25;;;22.88;58.41
48517;BME280;34310;51.904;4.256;2022-09-09T02:37:47;100673.03;;;22.89;58.51
48517;BME280;34310;51.904;4.256;2022-09-09T02:40:17;100658.09;;;22.88;58.60
48517;BME280;34310;51.904;4.256;2022-09-09T02:42:46;100652.84;;;22.88;58.55
48517;BME280;34310;51.904;4.256;2022-09-09T02:45:18;100664.25;;;22.88;58.82
48517;BME280;34310;51.904;4.256;2022-09-09T02:51:13;100660.72;;;22.86;58.49
48517;BME280;34310;51.904;4.256;2022-09-09T02:53:55;100663.31;;;22.84;58.53
48517;BME280;34310;51.904;4.256;2022-09-09T02:56:29;100658.06;;;22.84;58.64
48517;BME280;34310;51.904;4.256;2022-09-09T02:58:58;100659.75;;;22.84;58.86
48517;BME280;34310;51.904;4.256;2022-09-09T03:01:26;100658.06;;;22.84;58.56
48517;BME280;34310;51.904;4.256;2022-09-09T03:03:53;100658.94;;;22.85;58.39
48517;BME280;34310;51.904;4.256;2022-09-09T03:06:22;100650.09;;;22.83;58.59
48517;BME280;34310;51.904;4.256;2022-09-09T03:08:49;100650.09;;;22.83;58.48
48517;BME280;34310;51.904;4.256;2022-09-09T03:11:17;100646.56;;;22.82;58.64
48517;BME280;34310;51.904;4.256;2022-09-09T03:13:44;100640.44;;;22.82;58.59
48517;BME280;34310;51.904;4.256;2022-09-09T03:16:11;100633.38;;;22.81;58.69
48517;BME280;34310;51.904;4.256;2022-09-09T03:18:39;100636.03;;;22.81;58.59
48517;BME280;34310;51.904;4.256;2022-09-09T03:21:06;100630.69;;;22.79;58.66
48517;BME280;34310;51.904;4.256;2022-09-09T03:23:34;100630.75;;;22.81;58.86
48517;BME280;34310;51.904;4.256;2022-09-09T03:26:01;100630.69;;;22.79;58.72
48517;BME280;34310;51.904;4.256;2022-09-09T03:28:28;100625.41;;;22.78;58.57
48517;BME280;34310;51.904;4.256;2022-09-09T03:31:00;100630.66;;;22.78;58.67
48517;BME280;34310;51.904;4.256;2022-09-09T03:33:27;100633.31;;;22.78;58.92
48517;BME280;34310;51.904;4.256;2022-09-09T03:35:56;100629.78;;;22.77;58.98
48517;BME280;34310;51.904;4.256;2022-09-09T03:38:25;100624.53;;;22.77;58.83
48517;BME280;34310;51.904;4.256;2022-09-09T03:40:54;100624.50;;;22.76;58.70
48517;BME280;34310;51.904;4.256;2022-09-09T03:43:25;100626.25;;;22.75;58.77
48517;BME280;34310;51.904;4.256;2022-09-09T03:45:54;100624.47;;;22.74;58.81
48517;BME280;34310;51.904;4.256;2022-09-09T03:48:25;100622.72;;;22.75;58.86
48517;BME280;34310;51.904;4.256;2022-09-09T03:50:55;100625.31;;;22.73;58.78
48517;BME280;34310;51.904;4.256;2022-09-09T03:53:28;100620.94;;;22.74;59.17
48517;BME280;34310;51.904;4.256;2022-09-09T03:55:56;100616.53;;;22.73;59.04
48517;BME280;34310;51.904;4.256;2022-09-09T03:58:27;100613.03;;;22.72;58.88
48517;BME280;34310;51.904;4.256;2022-09-09T04:01:02;100606.84;;;22.70;59.04
48517;BME280;34310;51.904;4.256;2022-09-09T04:03:31;100606.00;;;22.71;59.15
48517;BME280;34310;51.904;4.256;2022-09-09T04:05:59;100606.84;;;22.70;59.17
48517;BME280;34310;51.904;4.256;2022-09-09T04:08:27;100604.22;;;22.70;59.01
48517;BME280;34310;51.904;4.256;2022-09-09T04:10:55;100605.97;;;22.70;59.18
48517;BME280;34310;51.904;4.256;2022-09-09T04:13:26;100599.81;;;22.69;59.02
48517;BME280;34310;51.904;4.256;2022-09-09T04:15:58;100592.78;;;22.68;59.24
48517;BME280;34310;51.904;4.256;2022-09-09T04:18:26;100594.53;;;22.68;59.12
48517;BME280;34310;51.904;4.256;2022-09-09T04:20:55;100598.03;;;22.68;59.08
48517;BME280;34310;51.904;4.256;2022-09-09T04:23:27;100585.75;;;22.67;59.08
48517;BME280;34310;51.904;4.256;2022-09-09T04:25:59;100584.88;;;22.67;59.09
48517;BME280;34310;51.904;4.256;2022-09-09T04:28:29;100582.22;;;22.65;59.20
48517;BME280;34310;51.904;4.256;2022-09-09T04:31:03;100586.59;;;22.66;59.02
48517;BME280;34310;51.904;4.256;2022-09-09T04:33:30;100578.72;;;22.66;59.15
48517;BME280;34310;51.904;4.256;2022-09-09T04:36:03;100572.53;;;22.64;59.22
48517;BME280;34310;51.904;4.256;2022-09-09T04:38:30;100571.69;;;22.65;59.11
48517;BME280;34310;51.904;4.256;2022-09-09T04:40:57;100567.28;;;22.64;59.17
48517;BME280;34310;51.904;4.256;2022-09-09T04:43:25;100567.25;;;22.63;59.32
48517;BME280;34310;51.904;4.256;2022-09-09T04:45:53;100562.00;;;22.63;59.12
48517;BME280;34310;51.904;4.256;2022-09-09T04:48:21;100564.63;;;22.63;59.04
48517;BME280;34310;51.904;4.256;2022-09-09T04:51:14;100560.22;;;22.62;59.21
48517;BME280;34310;51.904;4.256;2022-09-09T04:53:42;100566.38;;;22.62;59.23
48517;BME280;34310;51.904;4.256;2022-09-09T04:56:12;100574.25;;;22.61;59.48
48517;BME280;34310;51.904;4.256;2022-09-09T04:58:40;100567.19;;;22.60;59.41
48517;BME280;34310;51.904;4.256;2022-09-09T05:01:16;100566.34;;;22.61;59.56
48517;BME280;34310;51.904;4.256;2022-09-09T05:03:47;100569.84;;;22.60;59.29
48517;BME280;34310;51.904;4.256;2022-09-09T05:06:17;100567.19;;;22.60;59.34
48517;BME280;34310;51.904;4.256;2022-09-09T05:08:45;100558.41;;;22.59;59.35
48517;BME280;34310;51.904;4.256;2022-09-09T05:11:20;100563.69;;;22.59;59.36
48517;BME280;34310;51.904;4.256;2022-09-09T05:13:48;100550.53;;;22.59;59.54
48517;BME280;34310;51.904;4.256;2022-09-09T05:16:18;100551.38;;;22.58;59.47
48517;BME280;34310;51.904;4.256;2022-09-09T05:18:46;100550.50;;;22.58;59.23
48517;BME280;34310;51.904;4.256;2022-09-09T05:21:15;100548.75;;;22.58;59.43
48517;BME280;34310;51.904;4.256;2022-09-09T05:23:43;100548.75;;;22.58;59.33
48517;BME280;34310;51.904;4.256;2022-09-09T05:26:16;100554.00;;;22.56;59.50
48517;BME280;34310;51.904;4.256;2022-09-09T05:28:44;100557.50;;;22.57;59.38
48517;BME280;34310;51.904;4.256;2022-09-09T05:31:13;100558.41;;;22.58;59.46
48517;BME280;34310;51.904;4.256;2022-09-09T05:33:42;100565.41;;;22.57;59.32
48517;BME280;34310;51.904;4.256;2022-09-09T05:36:18;100573.28;;;22.57;59.49
48517;BME280;34310;51.904;4.256;2022-09-09T05:38:47;100568.03;;;22.57;59.28
48517;BME280;34310;51.904;4.256;2022-09-09T05:41:15;100568.00;;;22.55;59.35
48517;BME280;34310;51.904;4.256;2022-09-09T05:43:43;100565.38;;;22.55;59.58
48517;BME280;34310;51.904;4.256;2022-09-09T05:46:13;100581.16;;;22.55;59.46
48517;BME280;34310;51.904;4.256;2022-09-09T05:48:42;100574.16;;;22.56;59.65
48517;BME280;34310;51.904;4.256;2022-09-09T05:51:12;100568.91;;;22.56;59.38
48517;BME280;34310;51.904;4.256;2022-09-09T05:53:39;100575.91;;;22.55;59.30
48517;BME280;34310;51.904;4.256;2022-09-09T05:56:12;100580.25;;;22.55;59.28
48517;BME280;34310;51.904;4.256;2022-09-09T05:58:41;100573.28;;;22.55;59.65
48517;BME280;34310;51.904;4.256;2022-09-09T06:01:14;100571.53;;;22.56;59.65
48517;BME280;34310;51.904;4.256;2022-09-09T06:03:43;100573.28;;;22.55;59.47
48517;BME280;34310;51.904;4.256;2022-09-09T06:06:13;100573.22;;;22.54;59.42
48517;BME280;34310;51.904;4.256;2022-09-09T06:08:42;100574.09;;;22.54;59.54
48517;BME280;34310;51.904;4.256;2022-09-09T06:11:15;100580.25;;;22.55;59.34
48517;BME280;34310;51.904;4.256;2022-09-09T06:13:44;100576.72;;;22.54;59.62
48517;BME280;34310;51.904;4.256;2022-09-09T06:16:13;100574.09;;;22.54;59.33
48517;BME280;34310;51.904;4.256;2022-09-09T06:18:41;100571.47;;;22.54;59.45
48517;BME280;34310;51.904;4.256;2022-09-09T06:21:15;100571.44;;;22.53;59.42
48517;BME280;34310;51.904;4.256;2022-09-09T06:23:43;100571.44;;;22.53;59.59
48517;BME280;34310;51.904;4.256;2022-09-09T06:26:16;100570.56;;;22.52;59.70
48517;BME280;34310;51.904;4.256;2022-09-09T06:28:46;100571.44;;;22.53;59.28
48517;BME280;34310;51.904;4.256;2022-09-09T06:31:16;100578.41;;;22.51;59.69
48517;BME280;34310;51.904;4.256;2022-09-09T06:33:44;100581.06;;;22.52;59.45
48517;BME280;34310;51.904;4.256;2022-09-09T06:36:20;100574.91;;;22.50;59.65
48517;BME280;34310;51.904;4.256;2022-09-09T06:38:48;100574.91;;;22.50;59.50
48517;BME280;34310;51.904;4.256;2022-09-09T06:41:17;100570.50;;;22.49;59.28
48517;BME280;34310;51.904;4.256;2022-09-09T06:43:46;100564.34;;;22.49;59.51
48517;BME280;34310;51.904;4.256;2022-09-09T06:46:15;100564.34;;;22.49;59.13
48517;BME280;34310;51.904;4.256;2022-09-09T06:48:44;100567.00;;;22.49;59.21
48517;BME280;34310;51.904;4.256;2022-09-09T06:51:14;100570.47;;;22.48;59.39
48517;BME280;34310;51.904;4.256;2022-09-09T06:53:43;100562.50;;;22.43;59.26
48517;BME280;34310;51.904;4.256;2022-09-09T06:56:18;100563.22;;;22.33;58.81
48517;BME280;34310;51.904;4.256;2022-09-09T06:58:46;100567.63;;;22.36;58.75
48517;BME280;34310;51.904;4.256;2022-09-09T07:01:19;100563.31;;;22.39;58.12
48517;BME280;34310;51.904;4.256;2022-09-09T07:03:52;100563.31;;;22.39;57.35
48517;BME280;34310;51.904;4.256;2022-09-09T07:06:22;100572.09;;;22.40;56.91
48517;BME280;34310;51.904;4.256;2022-09-09T07:09:01;100566.00;;;22.42;56.56
48517;BME280;34310;51.904;4.256;2022-09-09T07:11:33;100572.16;;;22.43;56.11
48517;BME280;34310;51.904;4.256;2022-09-09T07:14:01;100564.31;;;22.46;55.96
48517;BME280;34310;51.904;4.256;2022-09-09T07:16:29;100566.06;;;22.47;55.74
48517;BME280;34310;51.904;4.256;2022-09-09T07:18:58;100566.97;;;22.47;55.46
48517;BME280;34310;51.904;4.256;2022-09-09T07:21:28;100568.72;;;22.48;55.36
48517;BME280;34310;51.904;4.256;2022-09-09T07:23:57;100559.09;;;22.49;55.15
48517;BME280;34310;51.904;4.256;2022-09-09T07:26:27;100556.50;;;22.50;54.76
48517;BME280;34310;51.904;4.256;2022-09-09T07:28:55;100560.00;;;22.51;54.61
48517;BME280;34310;51.904;4.256;2022-09-09T07:31:28;100558.25;;;22.51;54.61
48517;BME280;34310;51.904;4.256;2022-09-09T07:33:58;100559.16;;;22.52;54.41
48517;BME280;34310;51.904;4.256;2022-09-09T07:36:35;100559.97;;;22.49;54.79
48517;BME280;34310;51.904;4.256;2022-09-09T07:39:10;100570.47;;;22.48;54.28
48517;BME280;34310;51.904;4.256;2022-09-09T07:41:43;100563.41;;;22.45;54.20
48517;BME280;34310;51.904;4.256;2022-09-09T07:44:22;100564.31;;;22.46;54.07
48517;BME280;34310;51.904;4.256;2022-09-09T07:46:50;100566.97;;;22.47;53.97
48517;BME280;34310;51.904;4.256;2022-09-09T07:49:18;100572.22;;;22.47;53.94
48517;BME280;34310;51.904;4.256;2022-09-09T07:51:53;100567.88;;;22.49;53.98
48517;BME280;34310;51.904;4.256;2022-09-09T07:54:21;100566.09;;;22.48;54.05
48517;BME280;34310;51.904;4.256;2022-09-09T07:56:51;100569.69;;;22.53;53.88
48517;BME280;34310;51.904;4.256;2022-09-09T07:59:19;100564.53;;;22.58;53.90
48517;BME280;34310;51.904;4.256;2022-09-09T08:01:49;100569.81;;;22.58;53.84
48517;BME280;34310;51.904;4.256;2022-09-09T08:04:21;100565.50;;;22.63;53.80
48517;BME280;34310;51.904;4.256;2022-09-09T08:07:00;100567.19;;;22.60;53.77
48517;BME280;34310;51.904;4.256;2022-09-09T08:09:28;100574.19;;;22.58;53.63
48517;BME280;34310;51.904;4.256;2022-09-09T08:11:56;100569.78;;;22.56;53.47
48517;BME280;34310;51.904;4.256;2022-09-09T08:14:24;100570.66;;;22.57;53.52
48517;BME280;34310;51.904;4.256;2022-09-09T08:16:52;100572.41;;;22.56;53.57
48517;BME280;34310;51.904;4.256;2022-09-09T08:19:21;100573.28;;;22.57;53.30
48517;BME280;34310;51.904;4.256;2022-09-09T08:21:49;100579.41;;;22.56;53.42
48517;BME280;34310;51.904;4.256;2022-09-09T08:24:16;100579.44;;;22.58;53.41
48517;BME280;34310;51.904;4.256;2022-09-09T08:26:47;100577.63;;;22.55;53.15
48517;BME280;34310;51.904;4.256;2022-09-09T08:29:18;100574.06;;;22.53;53.30
48517;BME280;34310;51.904;4.256;2022-09-09T08:31:56;100574.00;;;22.48;53.29
48517;BME280;34310;51.904;4.256;2022-09-09T08:34:25;100580.19;;;22.52;53.38
48517;BME280;34310;51.904;4.256;2022-09-09T08:36:54;100586.31;;;22.51;53.12
48517;BME280;34310;51.904;4.256;2022-09-09T08:39:22;100584.56;;;22.51;53.08
48517;BME280;34310;51.904;4.256;2022-09-09T08:50:32;100590.66;;;22.49;53.36
48517;BME280;34310;51.904;4.256;2022-09-09T08:55:50;100582.06;;;22.56;52.86
48517;BME280;34310;51.904;4.256;2022-09-09T08:58:20;100584.69;;;22.56;53.01
48517;BME280;34310;51.904;4.256;2022-09-09T09:03:48;100579.41;;;22.56;52.90
48517;BME280;34310;51.904;4.256;2022-09-09T09:06:53;100588.09;;;22.52;53.07
48517;BME280;34310;51.904;4.256;2022-09-09T09:12:19;100587.22;;;22.53;53.09
48517;BME280;34310;51.904;4.256;2022-09-09T09:14:48;100588.94;;;22.51;53.57
48517;BME280;34310;51.904;4.256;2022-09-09T09:17:18;100583.72;;;22.52;53.59
48517;BME280;34310;51.904;4.256;2022-09-09T09:19:47;100591.72;;;22.57;53.85
48517;BME280;34310;51.904;4.256;2022-09-09T09:25:05;100585.50;;;22.55;54.24
48517;BME280;34310;51.904;4.256;2022-09-09T09:27:43;100596.09;;;22.56;54.47
48517;BME280;34310;51.904;4.256;2022-09-09T09:30:20;100580.38;;;22.61;54.64
48517;BME280;34310;51.904;4.256;2022-09-09T09:33:21;100586.59;;;22.66;54.58
48517;BME280;34310;51.904;4.256;2022-09-09T09:35:51;100581.34;;;22.66;54.76
48517;BME280;34310;51.904;4.256;2022-09-09T09:38:20;100581.41;;;22.69;54.84
48517;BME280;34310;51.904;4.256;2022-09-09T09:41:09;100583.19;;;22.72;54.98
48517;BME280;34310;51.904;4.256;2022-09-09T09:43:39;100582.31;;;22.71;55.07
48517;BME280;34310;51.904;4.256;2022-09-09T09:46:20;100579.72;;;22.74;55.04
48517;BME280;34310;51.904;4.256;2022-09-09T09:49:05;100592.09;;;22.80;55.08
48517;BME280;34310;51.904;4.256;2022-09-09T09:51:35;100587.66;;;22.76;55.12
48517;BME280;34310;51.904;4.256;2022-09-09T09:54:27;100591.19;;;22.78;55.38
48517;BME280;34310;51.904;4.256;2022-09-09T09:56:56;100595.75;;;22.85;55.45
48517;BME280;34310;51.904;4.256;2022-09-09T09:59:35;100586.19;;;22.90;55.48
48517;BME280;34310;51.904;4.256;2022-09-09T10:02:24;100584.47;;;22.92;55.60
48517;BME280;34310;51.904;4.256;2022-09-09T10:05:25;100579.19;;;22.91;55.63
48517;BME280;34310;51.904;4.256;2022-09-09T10:14:10;100580.59;;;22.75;56.20
48517;BME280;34310;51.904;4.256;2022-09-09T10:19:33;100580.00;;;22.88;56.52
48517;BME280;34310;51.904;4.256;2022-09-09T10:27:45;100588.63;;;22.81;56.71
48517;BME280;34310;51.904;4.256;2022-09-09T10:30:30;100592.16;;;22.81;56.68
48517;BME280;34310;51.904;4.256;2022-09-09T10:38:11;100587.88;;;22.85;57.10
48517;BME280;34310;51.904;4.256;2022-09-09T10:40:49;100584.38;;;22.86;57.20
48517;BME280;34310;51.904;4.256;2022-09-09T10:55:17;100574.78;;;22.90;57.49
48517;BME280;34310;51.904;4.256;2022-09-09T10:57:53;100573.91;;;22.91;57.71
48517;BME280;34310;51.904;4.256;2022-09-09T11:00:42;100569.53;;;22.91;57.69
48517;BME280;34310;51.904;4.256;2022-09-09T11:03:20;100567.81;;;22.93;57.41
48517;BME280;34310;51.904;4.256;2022-09-09T11:06:00;100572.22;;;22.94;57.64
48517;BME280;34310;51.904;4.256;2022-09-09T11:08:30;100572.22;;;22.94;57.55
48517;BME280;34310;51.904;4.256;2022-09-09T11:16:26;100577.72;;;23.11;57.75
48517;BME280;34310;51.904;4.256;2022-09-09T11:19:09;100587.47;;;23.13;57.39
48517;BME280;34310;51.904;4.256;2022-09-09T11:21:46;100583.97;;;23.16;57.36
48517;BME280;34310;51.904;4.256;2022-09-09T11:24:24;100591.06;;;23.20;57.19
48517;BME280;34310;51.904;4.256;2022-09-09T11:27:14;100602.50;;;23.22;57.52
48517;BME280;34310;51.904;4.256;2022-09-09T11:40:45;100611.50;;;23.36;56.88
48517;BME280;34310;51.904;4.256;2022-09-09T11:43:21;100613.25;;;23.36;57.02
48517;BME280;34310;51.904;4.256;2022-09-09T11:45:58;100616.81;;;23.39;56.78
48517;BME280;34310;51.904;4.256;2022-09-09T11:48:40;100612.41;;;23.40;56.91
48517;BME280;34310;51.904;4.256;2022-09-09T11:53:55;100607.16;;;23.40;56.91
48517;BME280;34310;51.904;4.256;2022-09-09T11:56:32;100611.63;;;23.42;57.07
48517;BME280;34310;51.904;4.256;2022-09-09T11:59:06;100609.00;;;23.44;57.15
48517;BME280;34310;51.904;4.256;2022-09-09T12:01:49;100607.22;;;23.43;56.97
48517;BME280;34310;51.904;4.256;2022-09-09T12:07:00;100615.06;;;23.41;57.21
48517;BME280;34310;51.904;4.256;2022-09-09T12:09:45;100605.41;;;23.40;57.21
48517;BME280;34310;51.904;4.256;2022-09-09T12:17:28;100616.81;;;23.39;57.24
48517;BME280;34310;51.904;4.256;2022-09-09T12:20:16;100603.72;;;23.42;57.40
48517;BME280;34310;51.904;4.256;2022-09-09T12:28:25;100626.66;;;23.51;57.26
48517;BME280;34310;51.904;4.256;2022-09-09T12:31:39;100621.41;;;23.51;57.30
48517;BME280;34310;51.904;4.256;2022-09-09T12:36:39;100626.78;;;23.57;57.24
48517;BME280;34310;51.904;4.256;2022-09-09T12:39:52;100625.09;;;23.62;57.03
48517;BME280;34310;51.904;4.256;2022-09-09T12:42:20;100612.06;;;23.71;56.67
48517;BME280;34310;51.904;4.256;2022-09-09T12:44:56;100620.16;;;23.87;56.44
48517;BME280;34310;51.904;4.256;2022-09-09T12:47:34;100617.59;;;23.91;56.10
48517;BME280;34310;51.904;4.256;2022-09-09T12:50:10;100616.75;;;23.94;56.04
48517;BME280;34310;51.904;4.256;2022-09-09T12:52:42;100620.25;;;23.94;56.04
48517;BME280;34310;51.904;4.256;2022-09-09T12:55:20;100616.75;;;23.95;56.03
48517;BME280;34310;51.904;4.256;2022-09-09T12:57:49;100621.19;;;23.99;56.49
48517;BME280;34310;51.904;4.256;2022-09-09T13:00:22;100607.19;;;24.00;56.15
48517;BME280;34310;51.904;4.256;2022-09-09T13:02:54;100596.69;;;24.05;55.76
48517;BME280;34310;51.904;4.256;2022-09-09T13:05:36;100616.03;;;24.05;55.69
48517;BME280;34310;51.904;4.256;2022-09-09T13:08:06;100625.59;;;23.99;55.55
48517;BME280;34310;51.904;4.256;2022-09-09T13:13:34;100650.84;;;23.80;55.31
48517;BME280;34310;51.904;4.256;2022-09-09T13:16:04;100656.03;;;23.74;55.33
48517;BME280;34310;51.904;4.256;2022-09-09T13:18:36;100655.94;;;23.69;55.06
48517;BME280;34310;51.904;4.256;2022-09-09T13:21:05;100658.50;;;23.63;55.81
48517;BME280;34310;51.904;4.256;2022-09-09T13:23:34;100654.09;;;23.62;55.96
48517;BME280;34310;51.904;4.256;2022-09-09T13:26:23;100658.53;;;23.66;55.90
48517;BME280;34310;51.904;4.256;2022-09-09T13:28:52;100655.03;;;23.67;55.93
48517;BME280;34310;51.904;4.256;2022-09-09T13:31:28;100648.03;;;23.69;56.24
48517;BME280;34310;51.904;4.256;2022-09-09T13:33:56;100658.59;;;23.69;56.40
48517;BME280;34310;51.904;4.256;2022-09-09T13:36:31;100657.69;;;23.69;56.59
48517;BME280;34310;51.904;4.256;2022-09-09T13:39:02;100661.22;;;23.69;56.26
48517;BME280;34310;51.904;4.256;2022-09-09T13:41:42;100648.84;;;23.64;56.55
48517;BME280;34310;51.904;4.256;2022-09-09T13:44:32;100647.97;;;23.65;57.18
48517;BME280;34310;51.904;4.256;2022-09-09T13:47:04;100645.28;;;23.62;56.66
48517;BME280;34310;51.904;4.256;2022-09-09T13:49:36;100636.53;;;23.63;56.89
48517;BME280;34310;51.904;4.256;2022-09-09T13:52:15;100637.44;;;23.65;57.08
48517;BME280;34310;51.904;4.256;2022-09-09T13:54:48;100640.09;;;23.68;57.06
48517;BME280;34310;51.904;4.256;2022-09-09T13:59:46;100635.69;;;23.65;57.20
48517;BME280;34310;51.904;4.256;2022-09-09T14:02:31;100641.91;;;23.70;56.83
48517;BME280;34310;51.904;4.256;2022-09-09T14:04:58;100643.72;;;23.73;57.02
48517;BME280;34310;51.904;4.256;2022-09-09T14:07:26;100648.16;;;23.77;56.99
48517;BME280;34310;51.904;4.256;2022-09-09T14:09:53;100639.44;;;23.81;56.77
48517;BME280;34310;51.904;4.256;2022-09-09T14:12:20;100652.69;;;23.86;56.81
48517;BME280;34310;51.904;4.256;2022-09-09T14:14:48;100639.59;;;23.93;55.93
48517;BME280;34310;51.904;4.256;2022-09-09T14:17:15;100640.44;;;23.92;55.91
48517;BME280;34310;51.904;4.256;2022-09-09T14:19:42;100643.06;;;23.91;55.46
48517;BME280;34310;51.904;4.256;2022-09-09T14:22:10;100641.34;;;23.93;55.51
48517;BME280;34310;51.904;4.256;2022-09-09T14:24:37;100641.38;;;23.96;54.98
48517;BME280;34310;51.904;4.256;2022-09-09T14:27:05;100655.44;;;23.96;55.12
48517;BME280;34310;51.904;4.256;2022-09-09T14:29:33;100652.00;;;24.00;54.76
48517;BME280;34310;51.904;4.256;2022-09-09T14:32:00;100651.22;;;24.07;54.41
48517;BME280;34310;51.904;4.256;2022-09-09T14:34:28;100667.09;;;24.12;54.35
48517;BME280;34310;51.904;4.256;2022-09-09T14:36:55;100659.19;;;24.12;54.29
48517;BME280;34310;51.904;4.256;2022-09-09T14:39:23;100659.19;;;24.12;54.12
48517;BME280;34310;51.904;4.256;2022-09-09T14:41:50;100663.63;;;24.15;53.96
48517;BME280;34310;51.904;4.256;2022-09-09T14:44:17;100666.28;;;24.18;54.03
48517;BME280;34310;51.904;4.256;2022-09-09T14:46:45;100661.06;;;24.22;53.70
48517;BME280;34310;51.904;4.256;2022-09-09T14:49:12;100652.28;;;24.23;53.35
48517;BME280;34310;51.904;4.256;2022-09-09T14:51:40;100672.53;;;24.26;53.43
48517;BME280;34310;51.904;4.256;2022-09-09T14:54:07;100669.09;;;24.28;52.93
48517;BME280;34310;51.904;4.256;2022-09-09T14:56:35;100663.84;;;24.30;53.06
48517;BME280;34310;51.904;4.256;2022-09-09T14:59:02;100673.59;;;24.35;52.50
48517;BME280;34310;51.904;4.256;2022-09-09T15:01:31;100670.94;;;24.34;52.66
48517;BME280;34310;51.904;4.256;2022-09-09T15:04:01;100668.28;;;24.31;52.64
48517;BME280;34310;51.904;4.256;2022-09-09T15:06:30;100669.16;;;24.33;52.55
48517;BME280;34310;51.904;4.256;2022-09-09T15:09:00;100670.03;;;24.30;52.47
48517;BME280;34310;51.904;4.256;2022-09-09T15:11:30;100674.28;;;24.25;52.24
48517;BME280;34310;51.904;4.256;2022-09-09T15:13:59;100675.97;;;24.17;52.62
48517;BME280;34310;51.904;4.256;2022-09-09T15:16:28;100674.13;;;24.10;52.90
48517;BME280;34310;51.904;4.256;2022-09-09T15:18:57;100671.44;;;24.07;53.01
48517;BME280;34310;51.904;4.256;2022-09-09T15:21:31;100670.50;;;24.03;52.76